createdAt,value
2016-11-30T00:00:11.596Z,90.42
2016-11-30T00:01:22.035Z,91.19
2016-11-30T00:02:32.760Z,90.8
2016-11-30T00:03:43.285Z,90.9
2016-11-30T00:04:53.810Z,90.56
2016-11-30T00:06:04.835Z,90.32
2016-11-30T00:08:40.453Z,89.55
2016-11-30T00:09:50.973Z,89.4
2016-11-30T00:11:01.508Z,88.83
2016-11-30T00:12:12.038Z,88.93
2016-11-30T00:13:22.561Z,89.31
2016-11-30T00:14:33.086Z,89.07
2016-11-30T00:15:43.611Z,88.49
2016-11-30T00:16:54.162Z,88.69
2016-11-30T00:18:04.688Z,89.31
2016-11-30T00:20:40.271Z,88.64
2016-11-30T00:21:50.795Z,88.35
2016-11-30T00:23:01.355Z,88.64
2016-11-30T00:24:11.879Z,89.22
2016-11-30T00:25:22.402Z,88.83
2016-11-30T00:26:47.451Z,89.75
2016-11-30T00:27:57.974Z,89.17
2016-11-30T00:29:08.500Z,89.75
2016-11-30T00:30:19.152Z,89.84
2016-11-30T00:31:29.678Z,89.46
2016-11-30T00:32:54.726Z,89.84
2016-11-30T00:34:05.220Z,89.94
2016-11-30T00:35:15.728Z,89.94
2016-11-30T00:36:26.134Z,89.84
2016-11-30T00:37:36.536Z,90.17
2016-11-30T00:38:46.939Z,90.32
2016-11-30T00:39:57.353Z,90.22
2016-11-30T00:41:07.954Z,90.42
2016-11-30T00:42:18.359Z,90.42
2016-11-30T00:43:28.767Z,90.42
2016-11-30T00:44:39.174Z,90.37
2016-11-30T00:45:49.578Z,90.46
2016-11-30T00:47:00.187Z,91.13
2016-11-30T00:48:10.591Z,91.38
2016-11-30T00:49:20.996Z,91.76
2016-11-30T00:50:31.406Z,91.96
2016-11-30T00:51:42.297Z,92.53
2016-11-30T00:52:52.705Z,92.72
2016-11-30T00:54:03.109Z,92.82
2016-11-30T00:55:13.525Z,92.72
2016-11-30T00:56:23.927Z,93.49
2016-11-30T00:57:34.333Z,93.2
2016-11-30T01:00:09.894Z,93.3
2016-11-30T01:01:20.293Z,93.49
2016-11-30T01:02:30.694Z,94.16
2016-11-30T01:03:41.107Z,93.2
2016-11-30T01:04:51.514Z,93.1
2016-11-30T01:06:01.925Z,92.72
2016-11-30T01:07:12.338Z,93.39
2016-11-30T01:08:22.782Z,92.72
2016-11-30T01:09:33.413Z,92.33
2016-11-30T01:10:43.935Z,92.63
2016-11-30T01:11:54.458Z,92.72
2016-11-30T01:13:04.981Z,92.53
2016-11-30T01:14:15.505Z,92.43
2016-11-30T01:15:26.233Z,91.86
2016-11-30T01:16:36.795Z,91.66
2016-11-30T01:17:47.317Z,91.38
2016-11-30T01:18:57.842Z,90.9
2016-11-30T01:20:08.371Z,90.7
2016-11-30T01:21:18.994Z,90.7
2016-11-30T01:22:29.516Z,90.99
2016-11-30T01:23:40.042Z,90.7
2016-11-30T01:24:50.569Z,91.09
2016-11-30T01:26:01.098Z,90.8
2016-11-30T01:27:11.622Z,90.9
2016-11-30T01:28:22.151Z,91.38
2016-11-30T01:29:32.672Z,91.57
2016-11-30T01:30:43.195Z,91.38
2016-11-30T01:32:08.244Z,91.66
2016-11-30T01:33:18.773Z,91.66
2016-11-30T01:34:29.302Z,91.19
2016-11-30T01:35:39.825Z,91.47
2016-11-30T01:36:50.350Z,92.24
2016-11-30T01:38:00.974Z,91.47
2016-11-30T01:40:36.573Z,92.05
2016-11-30T01:41:47.094Z,91.47
2016-11-30T01:43:12.143Z,91.66
2016-11-30T01:44:22.669Z,91.66
2016-11-30T01:45:33.201Z,91.86
2016-11-30T01:46:43.724Z,91.47
2016-11-30T01:47:54.250Z,91.86
2016-11-30T01:49:04.977Z,91.28
2016-11-30T01:50:15.499Z,91.09
2016-11-30T01:51:26.023Z,90.7
2016-11-30T01:52:36.552Z,90.22
2016-11-30T01:53:47.072Z,90.42
2016-11-30T01:54:57.797Z,90.9
2016-11-30T01:56:08.323Z,90.99
2016-11-30T01:57:18.848Z,90.99
2016-11-30T01:58:29.395Z,90.7
2016-11-30T01:59:39.918Z,90.7
2016-11-30T02:00:50.442Z,90.52
2016-11-30T02:02:00.964Z,90.32
2016-11-30T02:03:11.990Z,89.65
2016-11-30T02:04:22.515Z,89.26
2016-11-30T02:05:33.039Z,89.46
2016-11-30T02:06:43.780Z,89.26
2016-11-30T02:07:54.308Z,88.98
2016-11-30T02:09:04.838Z,88.93
2016-11-30T02:10:15.368Z,89.26
2016-11-30T02:13:05.670Z,88.65
2016-11-30T02:14:16.163Z,88.49
2016-11-30T02:15:26.570Z,88.49
2016-11-30T02:16:36.975Z,88.59
2016-11-30T02:17:47.386Z,88.4
2016-11-30T02:18:57.792Z,88.59
2016-11-30T02:20:08.197Z,88.31
2016-11-30T02:21:19.088Z,88.31
2016-11-30T02:22:29.495Z,88.59
2016-11-30T02:23:39.903Z,88.69
2016-11-30T02:24:50.310Z,88.11
2016-11-30T02:26:00.719Z,88.31
2016-11-30T02:27:11.136Z,88.31
2016-11-30T02:28:36.092Z,88.69
2016-11-30T02:29:46.495Z,88.31
2016-11-30T02:30:56.901Z,89.07
2016-11-30T02:32:07.315Z,88.79
2016-11-30T02:33:17.725Z,89.46
2016-11-30T02:34:28.130Z,89.75
2016-11-30T02:35:38.536Z,90.08
2016-11-30T02:36:48.941Z,91.05
2016-11-30T02:37:59.830Z,91.05
2016-11-30T02:39:10.235Z,91.66
2016-11-30T02:40:20.868Z,91.57
2016-11-30T02:41:45.831Z,91.47
2016-11-30T02:42:56.239Z,92.05
2016-11-30T02:44:06.655Z,93.1
2016-11-30T02:45:17.060Z,93.15
2016-11-30T02:46:27.461Z,94.12
2016-11-30T02:47:37.869Z,94.31
2016-11-30T02:48:48.274Z,94.59
2016-11-30T02:49:58.682Z,94.49
2016-11-30T02:51:09.187Z,94.69
2016-11-30T02:52:19.592Z,95.55
2016-11-30T02:53:29.999Z,96.13
2016-11-30T02:54:40.408Z,95.84
2016-11-30T02:55:50.814Z,96.08
2016-11-30T02:57:01.218Z,97.38
2016-11-30T02:58:11.619Z,97.33
2016-11-30T02:59:22.026Z,96.94
2016-11-30T03:00:32.449Z,97.33
2016-11-30T03:01:42.858Z,97.04
2016-11-30T03:02:53.267Z,96.8
2016-11-30T03:04:03.679Z,96.61
2016-11-30T03:05:14.118Z,96.32
2016-11-30T03:06:24.521Z,96.61
2016-11-30T03:07:34.926Z,96.94
2016-11-30T03:08:45.531Z,96.99
2016-11-30T03:09:55.941Z,97.23
2016-11-30T03:11:06.350Z,97.52
2016-11-30T03:12:16.753Z,98.1
2016-11-30T03:13:27.158Z,98.53
2016-11-30T03:14:37.672Z,98.38
2016-11-30T03:15:48.070Z,98.38
2016-11-30T03:16:58.478Z,98.86
2016-11-30T03:18:08.881Z,98.28
2016-11-30T03:19:19.288Z,98.57
2016-11-30T03:20:29.793Z,99.05
2016-11-30T03:21:40.200Z,97.52
2016-11-30T03:22:50.606Z,96.94
2016-11-30T03:24:01.016Z,97.04
2016-11-30T03:25:11.420Z,97.14
2016-11-30T03:26:21.827Z,97.14
2016-11-30T03:27:46.782Z,97.33
2016-11-30T03:28:57.184Z,97.04
2016-11-30T03:30:07.627Z,96.08
2016-11-30T03:31:18.027Z,96.18
2016-11-30T03:32:28.532Z,95.31
2016-11-30T03:33:38.940Z,94.26
2016-11-30T03:34:49.339Z,93.78
2016-11-30T03:35:59.749Z,92.72
2016-11-30T03:37:10.150Z,92.44
2016-11-30T03:38:20.580Z,93.01
2016-11-30T03:39:30.983Z,91.96
2016-11-30T03:40:41.389Z,92.24
2016-11-30T03:41:51.794Z,91.86
2016-11-30T03:43:02.398Z,91.67
2016-11-30T03:44:12.802Z,92.15
2016-11-30T03:45:23.210Z,92.24
2016-11-30T03:46:33.612Z,92.05
2016-11-30T03:47:44.017Z,92.05
2016-11-30T03:48:54.427Z,92.82
2016-11-30T03:50:04.910Z,92.72
2016-11-30T03:51:15.318Z,92.91
2016-11-30T03:52:25.750Z,92.72
2016-11-30T03:53:36.155Z,93.21
2016-11-30T03:55:01.315Z,93.3
2016-11-30T03:56:11.721Z,92.91
2016-11-30T03:57:22.132Z,93.3
2016-11-30T03:58:47.115Z,93.88
2016-11-30T03:59:58.006Z,94.07
2016-11-30T04:01:08.507Z,94.54
2016-11-30T04:02:18.911Z,95.03
2016-11-30T04:03:43.862Z,95.21
2016-11-30T04:04:54.272Z,95.41
2016-11-30T04:06:19.226Z,95.51
2016-11-30T04:07:29.630Z,96.08
2016-11-30T04:08:40.031Z,95.79
2016-11-30T04:09:50.465Z,96.08
2016-11-30T04:11:00.868Z,95.79
2016-11-30T04:12:11.305Z,96.37
2016-11-30T04:13:21.709Z,96.94
2016-11-30T04:14:32.112Z,96.66
2016-11-30T04:15:43.015Z,96.94
2016-11-30T04:16:53.622Z,97.61
2016-11-30T04:18:04.025Z,97.33
2016-11-30T04:19:14.429Z,96.94
2016-11-30T04:20:24.835Z,97.71
2016-11-30T04:21:35.239Z,98.28
2016-11-30T04:23:00.193Z,98.1
2016-11-30T04:24:10.596Z,98.48
2016-11-30T04:25:21.005Z,98.86
2016-11-30T04:26:31.412Z,98.57
2016-11-30T04:27:41.818Z,98.86
2016-11-30T04:28:52.222Z,98.96
2016-11-30T04:30:02.623Z,99.82
2016-11-30T04:31:13.031Z,99.63
2016-11-30T04:32:23.435Z,99.63
2016-11-30T04:33:34.045Z,99.73
2016-11-30T04:34:44.448Z,99.99
2016-11-30T04:35:54.856Z,99.99
2016-11-30T04:37:05.259Z,99.99
2016-11-30T04:38:15.664Z,99.99
2016-11-30T04:39:26.266Z,99.99
2016-11-30T04:40:36.674Z,99.99
2016-11-30T04:41:47.074Z,99.99
2016-11-30T04:42:57.480Z,99.99
2016-11-30T04:44:07.880Z,99.99
2016-11-30T04:45:18.484Z,99.99
2016-11-30T04:46:28.887Z,99.99
2016-11-30T04:47:39.286Z,99.99
2016-11-30T04:48:49.694Z,99.99
2016-11-30T04:50:00.101Z,99.99
2016-11-30T04:51:10.505Z,99.99
2016-11-30T04:52:20.908Z,99.99
2016-11-30T04:53:31.309Z,99.99
2016-11-30T04:54:41.712Z,99.99
2016-11-30T04:55:52.119Z,99.99
2016-11-30T04:57:02.531Z,99.99
2016-11-30T04:58:12.932Z,99.99
2016-11-30T04:59:23.341Z,99.99
2016-11-30T05:00:33.740Z,99.99
2016-11-30T05:01:44.178Z,99.99
2016-11-30T05:03:09.228Z,99.99
2016-11-30T05:04:19.750Z,99.99
2016-11-30T05:05:31.263Z,99.99
2016-11-30T05:06:41.791Z,99.99
2016-11-30T05:07:52.515Z,99.99
2016-11-30T05:09:03.555Z,99.99
2016-11-30T05:10:14.076Z,99.99
2016-11-30T05:11:24.599Z,99.99
2016-11-30T05:12:35.153Z,99.99
2016-11-30T05:13:45.875Z,99.99
2016-11-30T05:14:56.398Z,99.99
2016-11-30T05:16:06.924Z,99.99
2016-11-30T05:17:31.971Z,99.99
2016-11-30T05:18:42.506Z,99.99
2016-11-30T05:19:53.227Z,99.99
2016-11-30T05:21:03.751Z,99.99
2016-11-30T05:22:14.277Z,99.99
2016-11-30T05:23:24.798Z,99.99
2016-11-30T05:24:35.319Z,99.99
2016-11-30T05:25:45.837Z,99.99
2016-11-30T05:26:56.862Z,99.99
2016-11-30T05:28:07.384Z,99.99
2016-11-30T05:29:17.905Z,99.99
2016-11-30T05:30:28.426Z,99.99
2016-11-30T05:31:53.475Z,99.99
2016-11-30T05:33:04.005Z,99.91
2016-11-30T05:34:29.054Z,99.99
2016-11-30T05:35:40.068Z,99.99
2016-11-30T05:36:50.589Z,99.99
2016-11-30T05:38:01.115Z,99.99
2016-11-30T05:39:11.635Z,99.99
2016-11-30T05:40:22.160Z,99.99
2016-11-30T05:41:32.884Z,99.99
2016-11-30T05:42:43.408Z,99.99
2016-11-30T05:43:53.943Z,99.99
2016-11-30T05:45:04.468Z,99.99
2016-11-30T05:46:14.995Z,99.99
2016-11-30T05:47:26.317Z,99.91
2016-11-30T05:48:51.365Z,99.99
2016-11-30T05:50:01.888Z,99.99
2016-11-30T05:51:12.419Z,99.99
2016-11-30T05:52:22.945Z,99.99
2016-11-30T05:53:33.668Z,99.91
2016-11-30T05:54:44.187Z,99.99
2016-11-30T05:55:54.709Z,99.99
2016-11-30T05:57:05.242Z,99.99
2016-11-30T05:58:15.769Z,99.99
2016-11-30T05:59:26.294Z,99.99
2016-11-30T06:00:36.813Z,99.99
2016-11-30T06:01:47.333Z,99.99
2016-11-30T06:02:57.866Z,99.99
2016-11-30T06:04:08.593Z,99.63
2016-11-30T06:05:19.115Z,99.99
2016-11-30T06:06:29.637Z,99.99
2016-11-30T06:07:40.157Z,99.99
2016-11-30T06:08:50.705Z,99.99
2016-11-30T06:10:01.428Z,99.99
2016-11-30T06:11:11.951Z,99.99
2016-11-30T06:12:22.475Z,99.91
2016-11-30T06:13:32.997Z,99.91
2016-11-30T06:14:43.520Z,99.91
2016-11-30T06:15:54.047Z,99.63
2016-11-30T06:17:04.572Z,99.99
2016-11-30T06:18:15.096Z,99.73
2016-11-30T06:19:25.621Z,99.05
2016-11-30T06:20:36.143Z,99.15
2016-11-30T06:23:11.910Z,98.67
2016-11-30T06:24:22.435Z,98.48
2016-11-30T06:25:32.958Z,98.86
2016-11-30T06:26:43.483Z,99.1
2016-11-30T06:27:54.203Z,98.24
2016-11-30T06:29:04.728Z,98.81
2016-11-30T06:30:15.250Z,98.24
2016-11-30T06:31:25.773Z,97.76
2016-11-30T06:32:36.500Z,97.66
2016-11-30T06:33:47.024Z,97.76
2016-11-30T06:34:57.552Z,97.76
2016-11-30T06:36:08.085Z,97.23
2016-11-30T06:37:18.606Z,96.94
2016-11-30T06:38:29.370Z,97.14
2016-11-30T06:39:39.894Z,97.71
2016-11-30T06:40:50.417Z,97.14
2016-11-30T06:42:00.939Z,97.04
2016-11-30T06:43:11.462Z,97.14
2016-11-30T06:44:22.186Z,96.94
2016-11-30T06:45:32.706Z,96.75
2016-11-30T06:46:43.231Z,96.94
2016-11-30T06:47:53.762Z,96.94
2016-11-30T06:49:04.309Z,96.94
2016-11-30T06:50:15.035Z,97.04
2016-11-30T06:51:25.565Z,98.1
2016-11-30T06:52:36.090Z,97.9
2016-11-30T06:53:46.613Z,97.9
2016-11-30T06:54:57.139Z,98.28
2016-11-30T06:56:07.667Z,98
2016-11-30T06:57:18.214Z,98.67
2016-11-30T06:58:28.736Z,99.05
2016-11-30T06:59:39.259Z,99.05
2016-11-30T07:00:49.783Z,98.81
2016-11-30T07:02:00.338Z,99.39
2016-11-30T07:03:25.387Z,98.81
2016-11-30T07:04:35.910Z,98.62
2016-11-30T07:07:11.480Z,98.81
2016-11-30T07:08:22.001Z,99.99
2016-11-30T07:10:01.605Z,99.96
2016-11-30T07:11:12.128Z,99.68
2016-11-30T07:12:22.849Z,99.99
2016-11-30T07:13:33.370Z,99.96
2016-11-30T07:14:43.894Z,99.99
2016-11-30T07:15:54.414Z,99.99
2016-11-30T07:17:04.935Z,99.68
2016-11-30T07:18:15.620Z,99.99
2016-11-30T07:19:26.022Z,99.99
2016-11-30T07:20:36.424Z,99.99
2016-11-30T07:21:46.828Z,99.99
2016-11-30T07:22:57.721Z,99.99
2016-11-30T07:24:08.321Z,99.99
2016-11-30T07:25:18.722Z,99.99
2016-11-30T07:26:29.156Z,99.96
2016-11-30T07:27:39.557Z,99.99
2016-11-30T07:28:49.961Z,99.99
2016-11-30T07:30:00.563Z,99.99
2016-11-30T07:31:10.967Z,99.99
2016-11-30T07:32:21.367Z,99.99
2016-11-30T07:33:31.773Z,99.99
2016-11-30T07:34:42.178Z,99.99
2016-11-30T07:35:52.578Z,99.99
2016-11-30T07:37:02.985Z,99.99
2016-11-30T07:38:13.390Z,99.99
2016-11-30T07:39:23.800Z,99.99
2016-11-30T07:40:34.202Z,99.99
2016-11-30T07:41:44.803Z,99.99
2016-11-30T07:42:55.207Z,99.99
2016-11-30T07:44:05.612Z,99.99
2016-11-30T07:45:16.015Z,99.99
2016-11-30T07:46:26.418Z,99.99
2016-11-30T07:47:37.024Z,99.99
2016-11-30T07:48:47.429Z,99.99
2016-11-30T07:49:57.831Z,99.99
2016-11-30T07:51:08.275Z,99.99
2016-11-30T07:52:18.794Z,99.99
2016-11-30T07:53:29.517Z,99.99
2016-11-30T07:54:40.041Z,99.99
2016-11-30T07:55:50.570Z,99.99
2016-11-30T07:57:01.094Z,99.99
2016-11-30T07:58:11.617Z,99.99
2016-11-30T07:59:22.140Z,99.99
2016-11-30T08:00:32.666Z,99.99
2016-11-30T08:01:43.191Z,99.99
2016-11-30T08:02:53.719Z,99.99
2016-11-30T08:04:04.244Z,99.99
2016-11-30T08:05:14.969Z,99.99
2016-11-30T08:06:25.487Z,99.99
2016-11-30T08:07:36.040Z,99.99
2016-11-30T08:08:46.563Z,99.99
2016-11-30T08:09:57.087Z,99.99
2016-11-30T08:11:07.635Z,99.99
2016-11-30T08:12:18.157Z,99.99
2016-11-30T08:13:28.677Z,99.99
2016-11-30T08:14:39.202Z,99.99
2016-11-30T08:15:49.723Z,99.99
2016-11-30T08:17:00.445Z,99.99
2016-11-30T08:18:25.500Z,99.99
2016-11-30T08:19:36.021Z,99.99
2016-11-30T08:20:46.543Z,99.99
2016-11-30T08:21:57.069Z,99.99
2016-11-30T08:23:07.809Z,99.99
2016-11-30T08:24:18.329Z,99.99
2016-11-30T08:25:28.879Z,99.99
2016-11-30T08:26:39.408Z,99.99
2016-11-30T08:27:50.131Z,99.99
2016-11-30T08:29:00.689Z,99.39
2016-11-30T08:30:25.737Z,99.99
2016-11-30T08:31:36.258Z,99.99
2016-11-30T08:32:46.779Z,99.99
2016-11-30T08:33:57.510Z,99.99
2016-11-30T08:35:08.033Z,99.99
2016-11-30T08:36:18.556Z,99.99
2016-11-30T08:37:29.078Z,99.99
2016-11-30T08:38:39.800Z,99.99
2016-11-30T08:39:50.327Z,99.99
2016-11-30T08:41:00.848Z,99.99
2016-11-30T08:42:11.373Z,99.99
2016-11-30T08:43:21.892Z,99.99
2016-11-30T08:44:32.435Z,99.99
2016-11-30T08:45:42.962Z,99.99
2016-11-30T08:46:53.491Z,99.99
2016-11-30T08:48:04.013Z,99.99
2016-11-30T08:49:29.060Z,99.99
2016-11-30T08:50:39.778Z,99.99
2016-11-30T08:51:50.299Z,99.99
2016-11-30T08:53:00.826Z,99.99
2016-11-30T08:54:11.848Z,99.77
2016-11-30T08:55:22.573Z,99.96
2016-11-30T08:56:33.081Z,99.77
2016-11-30T08:57:43.485Z,99.87
2016-11-30T08:58:53.890Z,98.91
2016-11-30T09:00:04.291Z,98.91
2016-11-30T09:01:14.897Z,98.72
2016-11-30T09:02:25.784Z,98.52
2016-11-30T09:03:36.187Z,98.05
2016-11-30T09:04:46.591Z,98.05
2016-11-30T09:05:56.994Z,98.05
2016-11-30T09:07:07.406Z,98.14
2016-11-30T09:08:17.814Z,97.85
2016-11-30T09:09:28.223Z,97.56
2016-11-30T09:11:07.731Z,98.24
2016-11-30T09:12:18.337Z,98.81
2016-11-30T09:13:28.746Z,98.43
2016-11-30T09:14:39.153Z,99.19
2016-11-30T09:15:49.556Z,98.05
2016-11-30T09:16:59.962Z,98.14
2016-11-30T09:18:10.563Z,98.24
2016-11-30T09:19:20.970Z,97.95
2016-11-30T09:20:31.376Z,98.24
2016-11-30T09:21:41.790Z,98.05
2016-11-30T09:22:52.195Z,98.14
2016-11-30T09:24:02.837Z,98.81
2016-11-30T09:25:13.275Z,98.24
2016-11-30T09:26:23.681Z,98.52
2016-11-30T09:27:34.091Z,98.43
2016-11-30T09:28:44.600Z,98.52
2016-11-30T09:29:55.123Z,98.24
2016-11-30T09:31:05.697Z,98.52
2016-11-30T09:32:30.750Z,98.24
2016-11-30T09:33:41.299Z,97.76
2016-11-30T09:34:51.820Z,97.56
2016-11-30T09:36:02.345Z,96.89
2016-11-30T09:37:12.893Z,97.47
2016-11-30T09:38:23.422Z,97.18
2016-11-30T09:39:33.946Z,96.99
2016-11-30T09:40:44.671Z,97.38
2016-11-30T09:42:09.717Z,96.32
2016-11-30T09:43:20.242Z,96.51
2016-11-30T09:45:56.046Z,97.09
2016-11-30T09:47:06.573Z,96.7
2016-11-30T09:48:17.095Z,96.89
2016-11-30T09:49:27.619Z,96.42
2016-11-30T09:50:38.159Z,96.7
2016-11-30T09:51:48.879Z,97.04
2016-11-30T09:52:59.432Z,96.89
2016-11-30T09:54:09.958Z,96.8
2016-11-30T09:55:20.480Z,96.7
2016-11-30T09:56:31.002Z,96.61
2016-11-30T09:57:41.525Z,96.85
2016-11-30T09:58:52.050Z,96.75
2016-11-30T10:00:02.576Z,96.66
2016-11-30T10:01:13.134Z,96.27
2016-11-30T10:02:23.667Z,95.89
2016-11-30T10:03:34.204Z,96.08
2016-11-30T10:04:45.224Z,96.47
2016-11-30T10:05:55.748Z,95.89
2016-11-30T10:07:06.274Z,95.31
2016-11-30T10:08:16.794Z,95.89
2016-11-30T10:09:27.313Z,95.89
2016-11-30T10:10:37.840Z,96.18
2016-11-30T10:11:48.362Z,95.41
2016-11-30T10:12:58.881Z,95.41
2016-11-30T10:14:09.403Z,95.41
2016-11-30T10:15:20.134Z,95.89
2016-11-30T10:16:45.186Z,95.98
2016-11-30T10:17:55.716Z,96.08
2016-11-30T10:19:06.244Z,95.7
2016-11-30T10:20:16.766Z,95.6
2016-11-30T10:21:27.290Z,96.37
2016-11-30T10:22:37.812Z,96.27
2016-11-30T10:23:48.331Z,96.75
2016-11-30T10:24:58.856Z,96.94
2016-11-30T10:26:09.589Z,96.85
2016-11-30T10:27:20.111Z,97.14
2016-11-30T10:28:30.638Z,97.14
2016-11-30T10:29:41.162Z,97.23
2016-11-30T10:30:51.681Z,97.14
2016-11-30T10:32:02.400Z,97.23
2016-11-30T10:34:52.502Z,97.52
2016-11-30T10:36:03.024Z,98
2016-11-30T10:37:13.554Z,98.28
2016-11-30T10:38:38.641Z,98.57
2016-11-30T10:39:49.166Z,98.19
2016-11-30T10:40:59.691Z,97.9
2016-11-30T10:42:10.218Z,98.28
2016-11-30T10:43:20.844Z,98.72
2016-11-30T10:44:31.366Z,97.86
2016-11-30T10:45:41.889Z,97.56
2016-11-30T10:47:06.942Z,97.76
2016-11-30T10:48:17.977Z,97.19
2016-11-30T10:49:28.504Z,97.09
2016-11-30T10:50:39.030Z,97.47
2016-11-30T10:51:49.563Z,97.76
2016-11-30T10:53:00.085Z,97.19
2016-11-30T10:54:10.610Z,97.66
2016-11-30T10:55:21.168Z,98.33
2016-11-30T10:56:31.691Z,98.1
2016-11-30T10:57:42.222Z,98
2016-11-30T10:58:52.744Z,98.53
2016-11-30T11:00:03.266Z,98.57
2016-11-30T11:01:13.797Z,98.53
2016-11-30T11:02:24.318Z,99.87
2016-11-30T11:03:34.846Z,99.77
2016-11-30T11:04:45.369Z,99.1
2016-11-30T11:05:55.889Z,98.82
2016-11-30T11:07:06.411Z,98.62
2016-11-30T11:08:16.939Z,99.01
2016-11-30T11:09:41.952Z,98.62
2016-11-30T11:10:52.361Z,99.1
2016-11-30T11:12:02.767Z,99.2
2016-11-30T11:13:27.721Z,98.62
2016-11-30T11:14:38.126Z,99.2
2016-11-30T11:15:49.017Z,99.01
2016-11-30T11:16:59.423Z,97.81
2016-11-30T11:18:09.837Z,97.52
2016-11-30T11:19:34.791Z,97.56
2016-11-30T11:20:45.197Z,97.38
2016-11-30T11:21:55.605Z,97.38
2016-11-30T11:23:06.010Z,97.66
2016-11-30T11:24:16.439Z,98.14
2016-11-30T11:25:41.413Z,97.91
2016-11-30T11:26:51.819Z,97.91
2016-11-30T11:28:02.220Z,97.61
2016-11-30T11:29:12.623Z,97.04
2016-11-30T11:30:23.024Z,97.04
2016-11-30T11:31:33.422Z,97.04
2016-11-30T11:32:43.828Z,97.52
2016-11-30T11:33:54.233Z,97.81
2016-11-30T11:35:04.638Z,97.33
2016-11-30T11:36:15.045Z,97.81
2016-11-30T11:37:25.647Z,98.29
2016-11-30T11:38:50.602Z,98
2016-11-30T11:40:01.004Z,98.77
2016-11-30T11:42:36.710Z,98.77
2016-11-30T11:43:47.114Z,98.1
2016-11-30T11:44:57.519Z,97.91
2016-11-30T11:46:07.924Z,98.58
2016-11-30T11:47:18.330Z,98.67
2016-11-30T11:50:08.241Z,98.58
2016-11-30T11:51:18.645Z,97.71
2016-11-30T11:52:29.045Z,97.61
2016-11-30T11:53:39.455Z,97.61
2016-11-30T11:54:49.860Z,97.33
2016-11-30T11:56:14.811Z,97.33
2016-11-30T11:57:25.213Z,97.91
2016-11-30T11:58:35.618Z,98.29
2016-11-30T11:59:46.120Z,98
2016-11-30T12:00:56.528Z,97.52
2016-11-30T12:02:06.928Z,97.24
2016-11-30T12:03:17.330Z,97.28
2016-11-30T12:04:42.285Z,95.26
2016-11-30T12:05:52.695Z,95.45
2016-11-30T12:07:03.103Z,95.26
2016-11-30T12:09:38.480Z,93.82
2016-11-30T12:10:48.886Z,93.25
2016-11-30T12:11:59.290Z,92.96
2016-11-30T12:13:09.699Z,93.05
2016-11-30T12:14:20.829Z,93.44
2016-11-30T12:15:46.940Z,93.25
2016-11-30T12:17:14.515Z,92.38
2016-11-30T12:18:25.040Z,92.86
2016-11-30T12:19:35.801Z,92.96
2016-11-30T12:21:17.349Z,92.77
2016-11-30T12:22:59.000Z,94.07
2016-11-30T12:24:09.533Z,94.11
2016-11-30T12:26:45.172Z,95.55
2016-11-30T12:28:10.723Z,94.98
2016-11-30T12:31:02.251Z,94.78
2016-11-30T12:32:13.303Z,94.4
2016-11-30T12:36:15.343Z,94.88
2016-11-30T12:37:26.565Z,94.78
2016-11-30T12:38:37.828Z,95.55
2016-11-30T12:39:48.355Z,95.36
2016-11-30T12:40:58.879Z,95.55
2016-11-30T12:42:09.398Z,95.21
2016-11-30T12:43:20.417Z,96.22
2016-11-30T12:44:30.937Z,96.89
2016-11-30T12:45:41.460Z,97.09
2016-11-30T12:46:52.015Z,97.28
2016-11-30T12:48:02.544Z,96.99
2016-11-30T12:49:13.561Z,97.66
2016-11-30T12:52:04.191Z,97.76
2016-11-30T12:53:14.918Z,98.53
2016-11-30T12:54:25.441Z,98.63
2016-11-30T12:55:35.963Z,96.89
2016-11-30T12:56:46.523Z,97.33
2016-11-30T12:57:57.052Z,98.43
2016-11-30T12:59:07.577Z,98.14
2016-11-30T13:00:18.102Z,97.86
2016-11-30T13:01:28.624Z,98.43
2016-11-30T13:02:39.152Z,98.34
2016-11-30T13:03:49.675Z,98.14
2016-11-30T13:05:00.196Z,98.72
2016-11-30T13:06:25.242Z,98.91
2016-11-30T13:07:35.765Z,98.63
2016-11-30T13:08:46.296Z,99.15
2016-11-30T13:09:56.820Z,99.49
2016-11-30T13:11:07.846Z,98.72
2016-11-30T13:12:18.369Z,98.91
2016-11-30T13:13:28.890Z,98.82
2016-11-30T13:14:39.414Z,98.72
2016-11-30T13:15:49.935Z,97.86
2016-11-30T13:17:00.466Z,98.63
2016-11-30T13:18:10.987Z,98.14
2016-11-30T13:21:15.813Z,98.53
2016-11-30T13:22:26.344Z,98.63
2016-11-30T13:23:36.865Z,98.72
2016-11-30T13:25:01.879Z,99.4
2016-11-30T13:26:12.286Z,98.91
2016-11-30T13:27:22.688Z,97.96
2016-11-30T13:28:33.093Z,97.28
2016-11-30T13:29:58.043Z,97.96
2016-11-30T13:31:08.444Z,98.43
2016-11-30T13:32:19.051Z,98.34
2016-11-30T13:33:29.491Z,98.24
2016-11-30T13:34:40.510Z,98.43
2016-11-30T13:36:05.566Z,99.01
2016-11-30T13:37:16.288Z,99.1
2016-11-30T13:40:06.391Z,98.43
2016-11-30T13:41:16.915Z,99.3
2016-11-30T13:42:27.436Z,99.2
2016-11-30T13:43:37.962Z,99.4
2016-11-30T13:44:48.485Z,99.99
2016-11-30T13:45:59.005Z,99.06
2016-11-30T13:47:09.528Z,98.43
2016-11-30T13:48:34.616Z,99.2
2016-11-30T13:49:45.668Z,98.53
2016-11-30T13:50:56.222Z,99.2
2016-11-30T13:52:21.320Z,98.24
2016-11-30T13:53:31.846Z,98.14
2016-11-30T13:54:42.372Z,98.72
2016-11-30T13:55:52.892Z,98.24
2016-11-30T13:57:03.422Z,98.72
2016-11-30T13:58:13.948Z,99.01
2016-11-30T13:59:24.964Z,98.58
2016-11-30T14:02:00.568Z,97.71
2016-11-30T14:03:11.103Z,97.52
2016-11-30T14:04:21.624Z,97.14
2016-11-30T14:05:32.346Z,97.67
2016-11-30T14:06:42.873Z,97.47
2016-11-30T14:07:53.395Z,94.98
2016-11-30T14:09:03.919Z,94.4
2016-11-30T14:10:14.649Z,93.58
2016-11-30T14:11:25.172Z,93.96
2016-11-30T14:12:50.223Z,94.54
2016-11-30T14:14:00.748Z,95.12
2016-11-30T14:15:11.268Z,95.79
2016-11-30T14:16:36.321Z,94.73
2016-11-30T14:17:46.852Z,94.93
2016-11-30T14:18:57.399Z,95.03
2016-11-30T14:20:22.446Z,95.7
2016-11-30T14:21:32.972Z,95.31
2016-11-30T14:22:43.497Z,96.75
2016-11-30T14:23:54.031Z,97.62
2016-11-30T14:25:04.562Z,96.94
2016-11-30T14:26:15.087Z,96.27
2016-11-30T14:27:40.135Z,95.84
2016-11-30T14:28:50.661Z,96.27
2016-11-30T14:30:01.186Z,96.37
2016-11-30T14:31:11.713Z,94.93
2016-11-30T14:32:22.438Z,96.08
2016-11-30T14:33:32.961Z,94.21
2016-11-30T14:34:58.015Z,95.45
2016-11-30T14:36:09.123Z,95.65
2016-11-30T14:37:19.651Z,95.55
2016-11-30T14:38:30.173Z,95.03
2016-11-30T14:39:40.695Z,94.98
2016-11-30T14:40:51.214Z,95.36
2016-11-30T14:42:16.262Z,95.17
2016-11-30T14:43:26.795Z,96.13
2016-11-30T14:44:37.316Z,96.13
2016-11-30T14:45:47.841Z,94.4
2016-11-30T14:46:59.362Z,95.03
2016-11-30T14:48:10.081Z,94.31
2016-11-30T14:49:20.618Z,94.98
2016-11-30T14:50:31.137Z,95.6
2016-11-30T14:51:41.662Z,95.45
2016-11-30T14:52:52.183Z,95.36
2016-11-30T14:54:17.227Z,95.55
2016-11-30T14:55:27.751Z,95.94
2016-11-30T14:56:38.774Z,96.18
2016-11-30T14:57:49.303Z,95.84
2016-11-30T14:58:59.827Z,95.79
2016-11-30T15:00:10.352Z,96.18
2016-11-30T15:01:20.878Z,96.66
2016-11-30T15:02:31.399Z,96.56
2016-11-30T15:03:41.916Z,97.24
2016-11-30T15:04:52.438Z,96.7
2016-11-30T15:06:02.961Z,96.51
2016-11-30T15:07:13.478Z,97.09
2016-11-30T15:08:23.994Z,98.05
2016-11-30T15:09:34.517Z,97.66
2016-11-30T15:10:45.148Z,98.43
2016-11-30T15:11:55.667Z,98.33
2016-11-30T15:13:06.195Z,96.99
2016-11-30T15:14:16.716Z,96.7
2016-11-30T15:15:27.235Z,96.7
2016-11-30T15:16:52.487Z,96.42
2016-11-30T15:18:03.007Z,97.19
2016-11-30T15:19:13.534Z,96.99
2016-11-30T15:20:38.580Z,97.28
2016-11-30T15:21:49.609Z,96.7
2016-11-30T15:23:00.126Z,95.75
2016-11-30T15:24:10.649Z,95.94
2016-11-30T15:25:21.169Z,96.42
2016-11-30T15:26:31.689Z,97.24
2016-11-30T15:27:42.407Z,95.41
2016-11-30T15:28:52.929Z,95.65
2016-11-30T15:30:03.968Z,94.35
2016-11-30T15:31:14.493Z,95.41
2016-11-30T15:32:25.012Z,95.21
2016-11-30T15:33:50.068Z,95.46
2016-11-30T15:35:00.585Z,94.93
2016-11-30T15:36:11.131Z,95.6
2016-11-30T15:37:21.675Z,94.74
2016-11-30T15:38:32.198Z,95.5
2016-11-30T15:39:42.715Z,95.31
2016-11-30T15:40:53.738Z,94.45
2016-11-30T15:42:04.282Z,94.07
2016-11-30T15:43:15.306Z,93.97
2016-11-30T15:44:25.830Z,94.35
2016-11-30T15:45:36.390Z,93.39
2016-11-30T15:46:46.916Z,92.19
2016-11-30T15:47:57.436Z,91.42
2016-11-30T15:49:08.455Z,91.52
2016-11-30T15:50:19.186Z,92.19
2016-11-30T15:51:29.704Z,92.1
2016-11-30T15:52:40.226Z,91.71
2016-11-30T15:53:50.749Z,90.56
2016-11-30T15:55:01.267Z,89.6
2016-11-30T15:56:26.315Z,87.87